sensor_id;sensor_type;location;lat;lon;timestamp;pressure;altitude;pressure_sealevel;temperature;humidity
55538;BME280;41383;51.418;7.286;2023-05-23T00:02:17;99920.91;;;17.13;81.16
55538;BME280;41383;51.418;7.286;2023-05-23T00:04:43;99901.47;;;17.04;81.79
55538;BME280;41383;51.418;7.286;2023-05-23T00:07:08;99918.56;;;17.21;81.03
55538;BME280;41383;51.418;7.286;2023-05-23T00:09:33;99904.50;;;17.36;79.87
55538;BME280;41383;51.418;7.286;2023-05-23T00:11:59;99902.66;;;17.18;79.68
55538;BME280;41383;51.418;7.286;2023-05-23T00:14:25;99913.44;;;17.00;81.34
55538;BME280;41383;51.418;7.286;2023-05-23T00:16:50;99901.28;;;17.01;80.36
55538;BME280;41383;51.418;7.286;2023-05-23T00:19:16;99903.53;;;16.99;80.45
55538;BME280;41383;51.418;7.286;2023-05-23T00:21:42;99909.03;;;16.99;80.46
55538;BME280;41383;51.418;7.286;2023-05-23T00:24:08;99905.56;;;17.07;80.14
55538;BME280;41383;51.418;7.286;2023-05-23T00:26:35;99915.47;;;17.08;79.44
55538;BME280;41383;51.418;7.286;2023-05-23T00:29:00;99924.34;;;17.05;80.10
55538;BME280;41383;51.418;7.286;2023-05-23T00:31:26;99921.69;;;17.00;80.52
55538;BME280;41383;51.418;7.286;2023-05-23T00:33:51;99916.88;;;16.77;81.33
55538;BME280;41383;51.418;7.286;2023-05-23T00:36:17;99921.13;;;16.69;81.07
55538;BME280;41383;51.418;7.286;2023-05-23T00:38:42;99913.31;;;16.43;81.12
55538;BME280;41383;51.418;7.286;2023-05-23T00:41:10;99917.34;;;16.32;82.02
55538;BME280;41383;51.418;7.286;2023-05-23T00:43:35;99932.44;;;16.34;81.46
55538;BME280;41383;51.418;7.286;2023-05-23T00:46:00;99934.97;;;16.64;80.40
55538;BME280;41383;51.418;7.286;2023-05-23T00:48:26;99933.59;;;16.48;80.60
55538;BME280;41383;51.418;7.286;2023-05-23T00:50:52;99942.25;;;16.41;80.75
55538;BME280;41383;51.418;7.286;2023-05-23T00:53:18;99948.50;;;16.47;81.41
55538;BME280;41383;51.418;7.286;2023-05-23T00:55:44;99942.13;;;16.65;80.41
55538;BME280;41383;51.418;7.286;2023-05-23T00:58:10;99944.44;;;16.58;80.04
55538;BME280;41383;51.418;7.286;2023-05-23T01:00:36;99948.06;;;16.39;80.76
55538;BME280;41383;51.418;7.286;2023-05-23T01:03:03;99956.13;;;16.50;80.20
55538;BME280;41383;51.418;7.286;2023-05-23T01:05:29;99956.94;;;16.50;80.17
55538;BME280;41383;51.418;7.286;2023-05-23T01:07:54;99953.91;;;16.52;79.74
55538;BME280;41383;51.418;7.286;2023-05-23T01:10:25;99956.78;;;16.61;79.39
55538;BME280;41383;51.418;7.286;2023-05-23T01:13:01;99946.78;;;16.51;78.06
55538;BME280;41383;51.418;7.286;2023-05-23T01:18:18;99951.66;;;16.54;77.72
55538;BME280;41383;51.418;7.286;2023-05-23T01:20:51;99959.69;;;16.69;78.04
55538;BME280;41383;51.418;7.286;2023-05-23T01:28:52;99949.25;;;16.66;77.94
55538;BME280;41383;51.418;7.286;2023-05-23T01:31:21;99946.94;;;16.74;77.92
55538;BME280;41383;51.418;7.286;2023-05-23T01:33:50;99950.00;;;16.86;77.20
55538;BME280;41383;51.418;7.286;2023-05-23T01:36:17;99952.16;;;16.75;77.70
55538;BME280;41383;51.418;7.286;2023-05-23T01:38:43;99958.56;;;16.85;77.71
55538;BME280;41383;51.418;7.286;2023-05-23T01:41:08;99949.53;;;16.98;76.56
55538;BME280;41383;51.418;7.286;2023-05-23T01:43:33;99947.28;;;17.00;76.92
55538;BME280;41383;51.418;7.286;2023-05-23T01:45:59;99949.50;;;16.84;77.00
55538;BME280;41383;51.418;7.286;2023-05-23T01:48:26;99951.13;;;16.85;77.08
55538;BME280;41383;51.418;7.286;2023-05-23T01:50:53;99953.91;;;16.85;77.04
55538;BME280;41383;51.418;7.286;2023-05-23T01:53:22;99961.03;;;16.86;77.39
55538;BME280;41383;51.418;7.286;2023-05-23T01:55:48;99954.91;;;16.89;77.50
55538;BME280;41383;51.418;7.286;2023-05-23T01:58:15;99953.91;;;16.85;77.21
55538;BME280;41383;51.418;7.286;2023-05-23T02:00:40;99953.28;;;16.88;76.91
55538;BME280;41383;51.418;7.286;2023-05-23T02:03:05;99955.19;;;16.74;77.63
55538;BME280;41383;51.418;7.286;2023-05-23T02:05:31;99964.56;;;16.73;77.77
55538;BME280;41383;51.418;7.286;2023-05-23T02:07:56;99950.13;;;16.81;77.86
55538;BME280;41383;51.418;7.286;2023-05-23T02:10:22;99960.47;;;16.70;77.60
55538;BME280;41383;51.418;7.286;2023-05-23T02:12:47;99965.91;;;16.75;77.92
55538;BME280;41383;51.418;7.286;2023-05-23T02:15:12;99964.56;;;16.73;77.46
55538;BME280;41383;51.418;7.286;2023-05-23T02:17:37;99966.63;;;16.81;77.30
55538;BME280;41383;51.418;7.286;2023-05-23T02:20:04;99963.16;;;16.75;77.82
55538;BME280;41383;51.418;7.286;2023-05-23T02:22:30;99966.41;;;16.77;77.68
55538;BME280;41383;51.418;7.286;2023-05-23T02:24:55;99961.22;;;16.76;78.07
55538;BME280;41383;51.418;7.286;2023-05-23T02:27:21;99966.59;;;16.67;78.07
55538;BME280;41383;51.418;7.286;2023-05-23T02:29:46;99964.94;;;16.66;78.29
55538;BME280;41383;51.418;7.286;2023-05-23T02:32:11;99962.25;;;16.47;79.02
55538;BME280;41383;51.418;7.286;2023-05-23T02:34:36;99962.59;;;16.59;79.00
55538;BME280;41383;51.418;7.286;2023-05-23T02:37:02;99960.72;;;16.74;78.32
55538;BME280;41383;51.418;7.286;2023-05-23T02:39:27;99962.13;;;16.71;78.43
55538;BME280;41383;51.418;7.286;2023-05-23T02:41:52;99968.44;;;16.72;78.49
55538;BME280;41383;51.418;7.286;2023-05-23T02:44:18;99971.78;;;16.68;78.68
55538;BME280;41383;51.418;7.286;2023-05-23T02:46:44;99975.56;;;16.73;78.13
55538;BME280;41383;51.418;7.286;2023-05-23T02:49:09;99975.47;;;16.44;79.18
55538;BME280;41383;51.418;7.286;2023-05-23T02:51:35;99976.25;;;16.64;79.23
55538;BME280;41383;51.418;7.286;2023-05-23T02:54:00;99972.06;;;16.53;79.23
55538;BME280;41383;51.418;7.286;2023-05-23T02:56:25;99971.09;;;16.43;79.70
55538;BME280;41383;51.418;7.286;2023-05-23T02:58:51;99981.94;;;16.54;79.82
55538;BME280;41383;51.418;7.286;2023-05-23T03:01:17;99970.50;;;16.47;80.17
55538;BME280;41383;51.418;7.286;2023-05-23T03:03:42;99970.13;;;16.53;80.10
55538;BME280;41383;51.418;7.286;2023-05-23T03:06:07;99978.53;;;16.43;80.46
55538;BME280;41383;51.418;7.286;2023-05-23T03:08:34;99983.28;;;16.56;80.64
55538;BME280;41383;51.418;7.286;2023-05-23T03:11:00;99976.94;;;16.56;80.45
55538;BME280;41383;51.418;7.286;2023-05-23T03:13:25;99980.22;;;16.58;80.53
55538;BME280;41383;51.418;7.286;2023-05-23T03:15:50;99981.34;;;16.57;80.80
55538;BME280;41383;51.418;7.286;2023-05-23T03:18:15;99977.78;;;16.56;80.66
55538;BME280;41383;51.418;7.286;2023-05-23T03:20:41;99976.00;;;16.47;80.94
55538;BME280;41383;51.418;7.286;2023-05-23T03:23:06;99981.28;;;16.43;81.79
55538;BME280;41383;51.418;7.286;2023-05-23T03:25:31;99984.84;;;16.43;81.48
55538;BME280;41383;51.418;7.286;2023-05-23T03:27:57;99980.56;;;16.37;81.60
55538;BME280;41383;51.418;7.286;2023-05-23T03:30:22;99979.28;;;16.49;81.15
55538;BME280;41383;51.418;7.286;2023-05-23T03:32:47;99979.22;;;16.34;81.55
55538;BME280;41383;51.418;7.286;2023-05-23T03:35:13;99976.63;;;16.24;81.41
55538;BME280;41383;51.418;7.286;2023-05-23T03:37:39;99987.84;;;16.28;80.69
55538;BME280;41383;51.418;7.286;2023-05-23T03:40:05;99990.84;;;16.45;80.20
55538;BME280;41383;51.418;7.286;2023-05-23T03:42:31;99985.44;;;16.40;79.99
55538;BME280;41383;51.418;7.286;2023-05-23T03:44:56;99985.16;;;16.22;80.32
55538;BME280;41383;51.418;7.286;2023-05-23T03:47:22;99997.72;;;16.29;80.70
55538;BME280;41383;51.418;7.286;2023-05-23T03:49:48;100000.78;;;16.08;81.33
55538;BME280;41383;51.418;7.286;2023-05-23T03:52:13;99987.97;;;16.17;80.41
55538;BME280;41383;51.418;7.286;2023-05-23T03:54:38;99998.91;;;16.03;80.66
55538;BME280;41383;51.418;7.286;2023-05-23T03:57:04;100011.41;;;16.15;80.62
55538;BME280;41383;51.418;7.286;2023-05-23T03:59:29;100008.38;;;15.92;80.97
55538;BME280;41383;51.418;7.286;2023-05-23T04:01:54;100020.63;;;16.05;80.41
55538;BME280;41383;51.418;7.286;2023-05-23T04:04:22;100030.03;;;15.98;80.43
55538;BME280;41383;51.418;7.286;2023-05-23T04:06:49;100036.22;;;15.85;80.75
55538;BME280;41383;51.418;7.286;2023-05-23T04:09:14;100015.88;;;15.86;81.45
55538;BME280;41383;51.418;7.286;2023-05-23T04:11:40;100030.63;;;15.71;80.92
55538;BME280;41383;51.418;7.286;2023-05-23T04:14:05;100032.38;;;15.86;80.92
55538;BME280;41383;51.418;7.286;2023-05-23T04:16:32;100037.75;;;15.96;80.88
55538;BME280;41383;51.418;7.286;2023-05-23T04:18:58;100031.41;;;15.96;80.66
55538;BME280;41383;51.418;7.286;2023-05-23T04:21:23;100032.19;;;16.02;80.91
55538;BME280;41383;51.418;7.286;2023-05-23T04:23:49;100027.63;;;16.16;80.62
55538;BME280;41383;51.418;7.286;2023-05-23T04:26:14;100030.75;;;16.29;79.96
55538;BME280;41383;51.418;7.286;2023-05-23T04:28:39;100040.25;;;16.37;79.41
55538;BME280;41383;51.418;7.286;2023-05-23T04:31:04;100043.53;;;16.39;79.07
55538;BME280;41383;51.418;7.286;2023-05-23T04:33:30;100034.97;;;16.40;79.71
55538;BME280;41383;51.418;7.286;2023-05-23T04:35:55;100036.22;;;16.48;79.28
55538;BME280;41383;51.418;7.286;2023-05-23T04:38:21;100035.94;;;16.50;79.57
55538;BME280;41383;51.418;7.286;2023-05-23T04:40:49;100031.03;;;16.47;79.71
55538;BME280;41383;51.418;7.286;2023-05-23T04:43:15;100036.84;;;16.45;79.90
55538;BME280;41383;51.418;7.286;2023-05-23T04:45:40;100040.47;;;16.40;80.00
55538;BME280;41383;51.418;7.286;2023-05-23T04:48:06;100044.69;;;16.13;80.40
55538;BME280;41383;51.418;7.286;2023-05-23T04:50:32;100042.97;;;16.17;80.83
55538;BME280;41383;51.418;7.286;2023-05-23T04:52:59;100052.31;;;16.41;79.88
55538;BME280;41383;51.418;7.286;2023-05-23T04:55:24;100051.50;;;16.21;79.92
55538;BME280;41383;51.418;7.286;2023-05-23T04:57:50;100053.28;;;16.31;79.51
55538;BME280;41383;51.418;7.286;2023-05-23T05:00:16;100061.28;;;16.08;79.59
55538;BME280;41383;51.418;7.286;2023-05-23T05:02:41;100054.59;;;16.14;80.71
55538;BME280;41383;51.418;7.286;2023-05-23T05:05:07;100048.22;;;16.38;79.46
55538;BME280;41383;51.418;7.286;2023-05-23T05:07:32;100058.81;;;16.26;79.85
55538;BME280;41383;51.418;7.286;2023-05-23T05:09:59;100060.00;;;16.19;80.50
55538;BME280;41383;51.418;7.286;2023-05-23T05:12:25;100057.13;;;16.30;80.54
55538;BME280;41383;51.418;7.286;2023-05-23T05:14:50;100055.50;;;16.29;80.61
55538;BME280;41383;51.418;7.286;2023-05-23T05:17:15;100060.63;;;16.36;80.40
55538;BME280;41383;51.418;7.286;2023-05-23T05:19:40;100056.47;;;16.38;80.67
55538;BME280;41383;51.418;7.286;2023-05-23T05:22:06;100056.06;;;16.26;80.35
55538;BME280;41383;51.418;7.286;2023-05-23T05:24:32;100062.31;;;16.31;80.17
55538;BME280;41383;51.418;7.286;2023-05-23T05:26:57;100054.91;;;16.32;79.92
55538;BME280;41383;51.418;7.286;2023-05-23T05:29:22;100068.88;;;16.16;80.53
55538;BME280;41383;51.418;7.286;2023-05-23T05:31:48;100082.09;;;15.90;81.28
55538;BME280;41383;51.418;7.286;2023-05-23T05:34:13;100076.25;;;15.96;81.59
55538;BME280;41383;51.418;7.286;2023-05-23T05:36:38;100080.19;;;15.85;81.22
55538;BME280;41383;51.418;7.286;2023-05-23T05:39:10;100084.84;;;15.90;80.81
55538;BME280;41383;51.418;7.286;2023-05-23T05:41:36;100084.25;;;16.17;80.42
55538;BME280;41383;51.418;7.286;2023-05-23T05:44:01;100081.34;;;16.28;79.31
55538;BME280;41383;51.418;7.286;2023-05-23T05:46:26;100087.91;;;16.13;80.42
55538;BME280;41383;51.418;7.286;2023-05-23T05:48:51;100083.25;;;16.08;80.43
55538;BME280;41383;51.418;7.286;2023-05-23T05:51:17;100089.75;;;16.17;80.09
55538;BME280;41383;51.418;7.286;2023-05-23T05:53:42;100094.38;;;16.22;80.10
55538;BME280;41383;51.418;7.286;2023-05-23T05:56:07;100099.84;;;16.03;80.07
55538;BME280;41383;51.418;7.286;2023-05-23T05:58:33;100096.47;;;15.81;80.80
55538;BME280;41383;51.418;7.286;2023-05-23T06:00:58;100101.63;;;15.88;80.93
55538;BME280;41383;51.418;7.286;2023-05-23T06:03:23;100105.66;;;15.96;80.51
55538;BME280;41383;51.418;7.286;2023-05-23T06:05:49;100100.94;;;16.02;80.50
55538;BME280;41383;51.418;7.286;2023-05-23T06:08:14;100105.34;;;15.97;80.42
55538;BME280;41383;51.418;7.286;2023-05-23T06:10:39;100104.81;;;15.95;80.69
55538;BME280;41383;51.418;7.286;2023-05-23T06:13:05;100103.13;;;16.05;80.39
55538;BME280;41383;51.418;7.286;2023-05-23T06:15:30;100098.38;;;16.10;79.76
55538;BME280;41383;51.418;7.286;2023-05-23T06:17:55;100094.28;;;16.08;79.80
55538;BME280;41383;51.418;7.286;2023-05-23T06:20:21;100107.13;;;15.88;80.16
55538;BME280;41383;51.418;7.286;2023-05-23T06:22:46;100108.78;;;15.59;81.14
55538;BME280;41383;51.418;7.286;2023-05-23T06:25:11;100115.50;;;15.72;80.86
55538;BME280;41383;51.418;7.286;2023-05-23T06:27:36;100115.41;;;15.83;79.80
55538;BME280;41383;51.418;7.286;2023-05-23T06:30:03;100113.78;;;15.82;79.84
55538;BME280;41383;51.418;7.286;2023-05-23T06:32:29;100110.41;;;15.90;80.34
55538;BME280;41383;51.418;7.286;2023-05-23T06:34:54;100117.28;;;15.87;79.66
55538;BME280;41383;51.418;7.286;2023-05-23T06:37:19;100120.13;;;15.82;79.98
55538;BME280;41383;51.418;7.286;2023-05-23T06:39:45;100123.03;;;15.91;79.79
55538;BME280;41383;51.418;7.286;2023-05-23T06:42:10;100118.59;;;15.41;81.04
55538;BME280;41383;51.418;7.286;2023-05-23T06:44:35;100127.09;;;15.69;80.23
55538;BME280;41383;51.418;7.286;2023-05-23T06:47:00;100116.41;;;15.68;79.79
55538;BME280;41383;51.418;7.286;2023-05-23T06:49:26;100128.25;;;15.63;80.70
55538;BME280;41383;51.418;7.286;2023-05-23T06:51:51;100126.22;;;15.44;80.79
55538;BME280;41383;51.418;7.286;2023-05-23T06:54:17;100126.91;;;15.60;80.25
55538;BME280;41383;51.418;7.286;2023-05-23T06:56:42;100130.47;;;15.61;79.19
55538;BME280;41383;51.418;7.286;2023-05-23T06:59:07;100136.50;;;15.63;79.06
55538;BME280;41383;51.418;7.286;2023-05-23T07:01:33;100150.69;;;15.75;78.71
55538;BME280;41383;51.418;7.286;2023-05-23T07:03:58;100141.81;;;15.84;78.24
55538;BME280;41383;51.418;7.286;2023-05-23T07:06:24;100152.56;;;15.80;78.32
55538;BME280;41383;51.418;7.286;2023-05-23T07:08:52;100152.63;;;15.40;78.75
55538;BME280;41383;51.418;7.286;2023-05-23T07:11:17;100159.34;;;15.58;78.83
55538;BME280;41383;51.418;7.286;2023-05-23T07:13:42;100161.34;;;15.52;78.92
55538;BME280;41383;51.418;7.286;2023-05-23T07:16:07;100155.38;;;15.45;78.11
55538;BME280;41383;51.418;7.286;2023-05-23T07:18:33;100165.19;;;15.51;78.40
55538;BME280;41383;51.418;7.286;2023-05-23T07:20:58;100161.84;;;15.25;78.99
55538;BME280;41383;51.418;7.286;2023-05-23T07:23:24;100167.41;;;15.49;78.51
55538;BME280;41383;51.418;7.286;2023-05-23T07:25:49;100165.44;;;15.20;78.62
55538;BME280;41383;51.418;7.286;2023-05-23T07:28:15;100178.63;;;15.18;79.33
55538;BME280;41383;51.418;7.286;2023-05-23T07:30:41;100177.56;;;15.19;79.44
55538;BME280;41383;51.418;7.286;2023-05-23T07:33:06;100185.06;;;15.43;78.34
55538;BME280;41383;51.418;7.286;2023-05-23T07:35:32;100176.28;;;15.41;78.10
55538;BME280;41383;51.418;7.286;2023-05-23T07:37:57;100182.69;;;15.31;78.39
55538;BME280;41383;51.418;7.286;2023-05-23T07:40:22;100189.97;;;15.46;78.48
55538;BME280;41383;51.418;7.286;2023-05-23T07:42:48;100196.44;;;15.61;77.33
55538;BME280;41383;51.418;7.286;2023-05-23T07:45:13;100197.19;;;15.67;76.92
55538;BME280;41383;51.418;7.286;2023-05-23T07:47:39;100191.84;;;15.51;77.72
55538;BME280;41383;51.418;7.286;2023-05-23T07:50:05;100197.25;;;15.26;78.88
55538;BME280;41383;51.418;7.286;2023-05-23T07:52:31;100204.41;;;15.27;78.95
55538;BME280;41383;51.418;7.286;2023-05-23T07:54:57;100198.97;;;15.52;77.76
55538;BME280;41383;51.418;7.286;2023-05-23T07:57:22;100214.13;;;15.49;77.52
55538;BME280;41383;51.418;7.286;2023-05-23T07:59:48;100209.09;;;15.62;77.09
55538;BME280;41383;51.418;7.286;2023-05-23T08:02:13;100203.09;;;15.55;76.99
55538;BME280;41383;51.418;7.286;2023-05-23T08:04:39;100205.28;;;15.52;77.33
55538;BME280;41383;51.418;7.286;2023-05-23T08:07:04;100209.09;;;15.57;76.45
55538;BME280;41383;51.418;7.286;2023-05-23T08:09:30;100205.28;;;15.52;76.67
55538;BME280;41383;51.418;7.286;2023-05-23T08:11:55;100208.00;;;15.58;76.68
55538;BME280;41383;51.418;7.286;2023-05-23T08:14:20;100208.19;;;15.67;76.42
55538;BME280;41383;51.418;7.286;2023-05-23T08:16:46;100209.47;;;15.80;76.15
55538;BME280;41383;51.418;7.286;2023-05-23T08:19:11;100222.44;;;15.74;76.41
55538;BME280;41383;51.418;7.286;2023-05-23T08:21:37;100217.13;;;15.83;75.62
55538;BME280;41383;51.418;7.286;2023-05-23T08:24:02;100213.41;;;15.68;75.97
55538;BME280;41383;51.418;7.286;2023-05-23T08:26:28;100222.84;;;15.57;75.55
55538;BME280;41383;51.418;7.286;2023-05-23T08:29:01;100221.00;;;15.82;75.87
55538;BME280;41383;51.418;7.286;2023-05-23T08:31:30;100227.69;;;16.00;74.91
55538;BME280;41383;51.418;7.286;2023-05-23T08:33:57;100235.84;;;15.81;74.62
55538;BME280;41383;51.418;7.286;2023-05-23T08:36:23;100233.22;;;15.95;74.79
55538;BME280;41383;51.418;7.286;2023-05-23T08:38:49;100227.78;;;15.90;74.97
55538;BME280;41383;51.418;7.286;2023-05-23T08:41:18;100225.03;;;16.19;74.43
55538;BME280;41383;51.418;7.286;2023-05-23T08:43:44;100228.38;;;16.16;73.62
55538;BME280;41383;51.418;7.286;2023-05-23T08:46:11;100233.88;;;16.16;74.07
55538;BME280;41383;51.418;7.286;2023-05-23T08:48:37;100240.00;;;15.78;75.42
55538;BME280;41383;51.418;7.286;2023-05-23T08:51:03;100235.31;;;15.79;75.21
55538;BME280;41383;51.418;7.286;2023-05-23T08:53:30;100246.50;;;15.58;76.04
55538;BME280;41383;51.418;7.286;2023-05-23T08:55:57;100253.91;;;15.57;75.65
55538;BME280;41383;51.418;7.286;2023-05-23T08:58:28;100249.84;;;15.49;76.24
55538;BME280;41383;51.418;7.286;2023-05-23T09:00:54;100257.78;;;15.51;76.33
55538;BME280;41383;51.418;7.286;2023-05-23T09:03:19;100252.41;;;15.70;76.42
55538;BME280;41383;51.418;7.286;2023-05-23T09:05:45;100268.50;;;15.87;75.10
55538;BME280;41383;51.418;7.286;2023-05-23T09:08:11;100258.78;;;15.66;75.38
55538;BME280;41383;51.418;7.286;2023-05-23T09:10:37;100273.38;;;15.61;75.58
55538;BME280;41383;51.418;7.286;2023-05-23T09:13:04;100270.47;;;15.47;76.29
55538;BME280;41383;51.418;7.286;2023-05-23T09:15:29;100271.66;;;15.30;77.25
55538;BME280;41383;51.418;7.286;2023-05-23T09:17:59;100275.34;;;15.55;75.92
55538;BME280;41383;51.418;7.286;2023-05-23T09:20:28;100265.44;;;15.59;75.56
55538;BME280;41383;51.418;7.286;2023-05-23T09:22:54;100274.22;;;15.61;75.51
55538;BME280;41383;51.418;7.286;2023-05-23T09:25:19;100276.00;;;15.42;75.04
55538;BME280;41383;51.418;7.286;2023-05-23T09:27:45;100285.03;;;15.47;75.18
55538;BME280;41383;51.418;7.286;2023-05-23T09:30:11;100278.03;;;15.25;75.49
55538;BME280;41383;51.418;7.286;2023-05-23T09:32:37;100293.38;;;15.26;74.62
55538;BME280;41383;51.418;7.286;2023-05-23T09:35:06;100296.19;;;15.16;75.37
55538;BME280;41383;51.418;7.286;2023-05-23T09:37:44;100289.06;;;15.15;76.05
55538;BME280;41383;51.418;7.286;2023-05-23T09:40:13;100300.06;;;15.15;75.38
55538;BME280;41383;51.418;7.286;2023-05-23T09:42:43;100291.94;;;14.89;76.20
55538;BME280;41383;51.418;7.286;2023-05-23T09:45:09;100298.88;;;15.26;75.67
55538;BME280;41383;51.418;7.286;2023-05-23T09:47:35;100298.09;;;15.21;74.98
55538;BME280;41383;51.418;7.286;2023-05-23T09:50:00;100298.44;;;15.03;75.89
55538;BME280;41383;51.418;7.286;2023-05-23T09:52:26;100303.97;;;15.49;74.15
55538;BME280;41383;51.418;7.286;2023-05-23T09:54:53;100309.03;;;15.71;73.35
55538;BME280;41383;51.418;7.286;2023-05-23T09:57:21;100306.53;;;15.75;72.55
55538;BME280;41383;51.418;7.286;2023-05-23T09:59:53;100303.81;;;15.70;71.57
55538;BME280;41383;51.418;7.286;2023-05-23T10:02:52;100309.41;;;15.59;71.88
55538;BME280;41383;51.418;7.286;2023-05-23T10:05:37;100308.56;;;15.64;72.00
55538;BME280;41383;51.418;7.286;2023-05-23T10:08:13;100315.91;;;15.74;71.47
55538;BME280;41383;51.418;7.286;2023-05-23T10:13:56;100307.50;;;15.55;70.74
55538;BME280;41383;51.418;7.286;2023-05-23T10:16:35;100301.09;;;15.64;71.29
55538;BME280;41383;51.418;7.286;2023-05-23T10:19:12;100306.09;;;15.17;71.11
55538;BME280;41383;51.418;7.286;2023-05-23T10:21:43;100313.25;;;15.13;72.91
55538;BME280;41383;51.418;7.286;2023-05-23T10:24:12;100316.59;;;15.50;71.33
55538;BME280;41383;51.418;7.286;2023-05-23T10:26:39;100322.34;;;15.54;71.27
55538;BME280;41383;51.418;7.286;2023-05-23T10:29:06;100323.66;;;15.16;72.18
55538;BME280;41383;51.418;7.286;2023-05-23T10:31:31;100324.72;;;15.25;72.78
55538;BME280;41383;51.418;7.286;2023-05-23T10:34:03;100337.38;;;15.21;72.37
55538;BME280;41383;51.418;7.286;2023-05-23T10:36:51;100329.97;;;15.11;72.33
55538;BME280;41383;51.418;7.286;2023-05-23T10:39:31;100335.03;;;14.78;73.59
55538;BME280;41383;51.418;7.286;2023-05-23T10:42:02;100339.16;;;14.75;74.24
55538;BME280;41383;51.418;7.286;2023-05-23T10:44:29;100330.91;;;14.80;74.17
55538;BME280;41383;51.418;7.286;2023-05-23T10:46:59;100338.63;;;14.68;74.31
55538;BME280;41383;51.418;7.286;2023-05-23T10:49:40;100348.16;;;15.02;73.13
55538;BME280;41383;51.418;7.286;2023-05-23T10:52:07;100356.69;;;15.00;73.17
55538;BME280;41383;51.418;7.286;2023-05-23T10:54:41;100360.84;;;14.71;72.18
55538;BME280;41383;51.418;7.286;2023-05-23T10:57:09;100363.38;;;14.42;72.80
55538;BME280;41383;51.418;7.286;2023-05-23T10:59:36;100360.00;;;14.71;72.30
55538;BME280;41383;51.418;7.286;2023-05-23T11:02:06;100367.66;;;14.95;71.28
55538;BME280;41383;51.418;7.286;2023-05-23T11:04:33;100371.69;;;15.19;69.13
55538;BME280;41383;51.418;7.286;2023-05-23T11:06:59;100374.41;;;15.24;70.05
55538;BME280;41383;51.418;7.286;2023-05-23T11:09:24;100373.97;;;15.57;69.65
55538;BME280;41383;51.418;7.286;2023-05-23T11:14:15;100369.63;;;15.91;67.58
55538;BME280;41383;51.418;7.286;2023-05-23T11:16:42;100365.44;;;16.04;66.78
55538;BME280;41383;51.418;7.286;2023-05-23T11:19:21;100369.03;;;16.04;66.27
55538;BME280;41383;51.418;7.286;2023-05-23T11:21:52;100369.06;;;15.94;64.86
55538;BME280;41383;51.418;7.286;2023-05-23T11:24:19;100363.47;;;15.69;65.16
55538;BME280;41383;51.418;7.286;2023-05-23T11:27:01;100362.56;;;15.79;64.17
55538;BME280;41383;51.418;7.286;2023-05-23T11:29:28;100366.09;;;15.85;64.02
55538;BME280;41383;51.418;7.286;2023-05-23T11:31:57;100367.22;;;15.84;64.18
55538;BME280;41383;51.418;7.286;2023-05-23T11:34:24;100362.75;;;15.93;64.23
55538;BME280;41383;51.418;7.286;2023-05-23T11:36:54;100364.47;;;15.84;63.67
55538;BME280;41383;51.418;7.286;2023-05-23T11:39:20;100361.81;;;15.68;64.80
55538;BME280;41383;51.418;7.286;2023-05-23T11:41:59;100364.50;;;15.79;64.15
55538;BME280;41383;51.418;7.286;2023-05-23T11:44:24;100369.38;;;15.87;63.47
55538;BME280;41383;51.418;7.286;2023-05-23T11:47:10;100371.25;;;16.02;63.02
55538;BME280;41383;51.418;7.286;2023-05-23T11:49:36;100368.44;;;16.07;63.73
55538;BME280;41383;51.418;7.286;2023-05-23T11:52:02;100370.09;;;16.08;63.10
55538;BME280;41383;51.418;7.286;2023-05-23T11:54:28;100377.16;;;15.80;63.03
55538;BME280;41383;51.418;7.286;2023-05-23T11:56:54;100379.25;;;15.48;64.43
55538;BME280;41383;51.418;7.286;2023-05-23T11:59:21;100385.88;;;15.42;64.55
55538;BME280;41383;51.418;7.286;2023-05-23T12:01:47;100375.59;;;15.63;63.54
55538;BME280;41383;51.418;7.286;2023-05-23T12:04:12;100378.75;;;15.86;63.55
55538;BME280;41383;51.418;7.286;2023-05-23T12:06:39;100389.63;;;16.07;62.52
55538;BME280;41383;51.418;7.286;2023-05-23T12:09:05;100388.56;;;15.97;61.94
55538;BME280;41383;51.418;7.286;2023-05-23T12:11:32;100391.59;;;15.96;61.51
55538;BME280;41383;51.418;7.286;2023-05-23T12:13:57;100380.75;;;16.15;61.93
55538;BME280;41383;51.418;7.286;2023-05-23T12:16:27;100386.47;;;16.24;60.63
55538;BME280;41383;51.418;7.286;2023-05-23T12:18:52;100383.41;;;16.31;60.54
55538;BME280;41383;51.418;7.286;2023-05-23T12:21:18;100389.28;;;16.49;60.88
55538;BME280;41383;51.418;7.286;2023-05-23T12:23:43;100386.22;;;16.50;60.00
55538;BME280;41383;51.418;7.286;2023-05-23T12:26:08;100388.69;;;16.52;59.77
55538;BME280;41383;51.418;7.286;2023-05-23T12:28:39;100389.28;;;16.49;58.94
55538;BME280;41383;51.418;7.286;2023-05-23T12:31:15;100396.84;;;16.62;58.36
55538;BME280;41383;51.418;7.286;2023-05-23T12:33:42;100394.69;;;16.59;59.64
55538;BME280;41383;51.418;7.286;2023-05-23T12:36:08;100397.28;;;16.75;59.31
55538;BME280;41383;51.418;7.286;2023-05-23T12:38:34;100382.66;;;17.04;58.61
55538;BME280;41383;51.418;7.286;2023-05-23T12:41:11;100387.78;;;17.16;57.10
55538;BME280;41383;51.418;7.286;2023-05-23T12:43:38;100384.25;;;17.54;57.17
55538;BME280;41383;51.418;7.286;2023-05-23T12:46:04;100387.13;;;17.44;56.49
55538;BME280;41383;51.418;7.286;2023-05-23T12:48:30;100386.81;;;17.26;55.05
55538;BME280;41383;51.418;7.286;2023-05-23T12:50:56;100395.00;;;17.31;53.67
55538;BME280;41383;51.418;7.286;2023-05-23T12:53:21;100393.69;;;17.48;52.61
55538;BME280;41383;51.418;7.286;2023-05-23T12:55:46;100391.19;;;17.71;53.13
55538;BME280;41383;51.418;7.286;2023-05-23T12:58:11;100392.31;;;17.89;52.57
55538;BME280;41383;51.418;7.286;2023-05-23T13:00:37;100383.19;;;17.89;51.63
55538;BME280;41383;51.418;7.286;2023-05-23T13:03:02;100380.19;;;18.04;52.29
55538;BME280;41383;51.418;7.286;2023-05-23T13:05:27;100372.16;;;18.08;51.77